CheckWX is a tool to help pilots better visualize weather data.  It is not intended as a substitute for an official pre-flight weather briefing.

04:53:16 UTC

KDVL TAF
Devils Lake Regional Airport
Devils Lake, North Dakota, USA
KDVL 180350Z 1804/1824 VRB04KT P6SM BKN060 FM180700 VRB05KT P6SM SCT050 FM181800 VRB05KT P6SM BKN050

Jun-18@
04:00 UTC

Jun-18 @ 04:00 UTC

Jun-18@
07:00 UTC

Jun-18 @ 07:00 UTC

KDVL 180350Z 1804/1824 VRB04KT P6SM BKN060
Wind
  • Variable at 4 KTS
Cloud Levels
  • Broken at 6,000' AGL

Jun-18@
07:00 UTC

Jun-18 @ 07:00 UTC

Jun-18@
18:00 UTC

Jun-18 @ 18:00 UTC

FM180700 VRB05KT P6SM SCT050

From

From Standard forecast or significant change

Wind
  • Variable at 5 KTS
Cloud Levels
  • Scattered at 5,000' AGL

Jun-18@
18:00 UTC

Jun-18 @ 18:00 UTC

Jun-19@
00:00 UTC

Jun-19 @ 00:00 UTC

FM181800 VRB05KT P6SM BKN050

From

From Standard forecast or significant change

Wind
  • Variable at 5 KTS
Cloud Levels
  • Broken at 5,000' AGL